createdAt,value
2023-01-25T00:02:05.945Z,90.63
2023-01-25T00:04:53.854Z,90.63
2023-01-25T00:07:40.567Z,90.59
2023-01-25T00:10:27.426Z,90.57
2023-01-25T00:13:13.715Z,89.95
2023-01-25T00:16:05.473Z,89.87
2023-01-25T00:18:52.338Z,89.79
2023-01-25T00:21:39.835Z,89.31
2023-01-25T00:24:26.259Z,88.99
2023-01-25T00:27:12.887Z,88.73
2023-01-25T00:29:59.725Z,88.60
2023-01-25T00:32:59.074Z,88.33
2023-01-25T00:35:45.748Z,88.15
2023-01-25T00:38:34.891Z,87.40
2023-01-25T00:41:21.353Z,87.61
2023-01-25T00:44:08.462Z,87.63
2023-01-25T00:46:54.885Z,87.50
2023-01-25T00:49:43.089Z,87.29
2023-01-25T00:52:29.796Z,87.26
2023-01-25T00:55:16.700Z,87.07
2023-01-25T00:58:03.412Z,87.02
2023-01-25T01:00:52.536Z,86.94
2023-01-25T01:03:39.932Z,86.66
2023-01-25T01:06:26.727Z,86.51
2023-01-25T01:09:15.584Z,86.47
2023-01-25T01:12:01.996Z,86.13
2023-01-25T01:14:48.871Z,85.98
2023-01-25T01:17:35.518Z,85.83
2023-01-25T01:20:22.395Z,85.81
2023-01-25T01:23:09.278Z,85.78
2023-01-25T01:25:56.331Z,85.69
2023-01-25T01:28:43.755Z,85.67
2023-01-25T01:31:30.497Z,85.60
2023-01-25T01:34:17.022Z,85.84
2023-01-25T01:37:03.775Z,85.98
2023-01-25T01:39:52.251Z,85.92
2023-01-25T01:43:03.912Z,85.83
2023-01-25T01:46:00.336Z,85.76
2023-01-25T01:49:16.573Z,85.77
2023-01-25T01:52:11.704Z,85.85
2023-01-25T01:55:18.245Z,85.72
2023-01-25T01:58:07.794Z,85.71
2023-01-25T02:00:54.411Z,85.49
2023-01-25T02:03:41.857Z,85.16
2023-01-25T02:06:51.541Z,84.19
2023-01-25T02:09:38.377Z,84.65
2023-01-25T02:12:25.417Z,84.57
2023-01-25T02:15:12.575Z,84.68
2023-01-25T02:17:59.845Z,84.63
2023-01-25T02:20:50.592Z,84.53
2023-01-25T02:23:47.392Z,84.74
2023-01-25T02:26:33.870Z,84.83
2023-01-25T02:29:24.164Z,84.78
2023-01-25T02:32:10.945Z,84.91
2023-01-25T02:34:57.589Z,84.99
2023-01-25T02:37:44.509Z,84.97
2023-01-25T02:40:35.075Z,85.02
2023-01-25T02:43:24.934Z,85.01
2023-01-25T02:46:21.120Z,84.87
2023-01-25T02:49:09.248Z,85.02
2023-01-25T02:51:57.475Z,85.13
2023-01-25T02:54:44.509Z,84.76
2023-01-25T02:57:30.917Z,84.72
2023-01-25T03:00:17.826Z,84.13
2023-01-25T03:03:04.519Z,83.72
2023-01-25T03:05:51.245Z,83.90
2023-01-25T03:08:38.005Z,83.90
2023-01-25T03:11:24.790Z,83.86
2023-01-25T03:14:11.532Z,83.78
2023-01-25T03:16:58.330Z,83.95
2023-01-25T03:19:45.040Z,83.30
2023-01-25T03:22:32.158Z,83.47
2023-01-25T03:25:18.741Z,83.79
2023-01-25T03:28:05.548Z,84.04
2023-01-25T03:30:57.056Z,83.74
2023-01-25T03:33:43.663Z,83.88
2023-01-25T03:36:30.483Z,82.84
2023-01-25T03:39:17.157Z,83.01
2023-01-25T03:42:04.144Z,83.68
2023-01-25T03:44:50.478Z,84.00
2023-01-25T03:47:37.132Z,84.13
2023-01-25T03:50:23.813Z,84.18
2023-01-25T04:07:23.465Z,84.87
2023-01-25T04:10:10.253Z,84.55
2023-01-25T04:12:55.970Z,84.49
2023-01-25T04:15:41.086Z,84.27
2023-01-25T04:18:26.118Z,83.04
2023-01-25T04:21:11.618Z,83.49
2023-01-25T04:23:56.734Z,83.53
2023-01-25T04:26:42.200Z,83.58
2023-01-25T04:29:40.124Z,83.46
2023-01-25T04:32:26.657Z,83.54
2023-01-25T04:35:12.486Z,83.83
2023-01-25T04:37:59.153Z,84.02
2023-01-25T04:40:45.121Z,84.09
2023-01-25T04:43:30.576Z,84.00
2023-01-25T04:46:15.975Z,83.97
2023-01-25T04:49:01.590Z,83.44
2023-01-25T04:51:46.941Z,83.12
2023-01-25T04:54:32.164Z,83.16
2023-01-25T04:57:17.838Z,82.70
2023-01-25T05:00:03.599Z,82.88
2023-01-25T05:02:49.338Z,82.70
2023-01-25T05:05:34.589Z,82.71
2023-01-25T05:08:19.985Z,82.32
2023-01-25T05:11:05.232Z,82.56
2023-01-25T05:13:51.437Z,82.97
2023-01-25T05:16:36.810Z,83.38
2023-01-25T05:19:57.990Z,83.96
2023-01-25T05:22:43.447Z,84.18
2023-01-25T05:25:48.226Z,84.29
2023-01-25T05:28:33.391Z,84.40
2023-01-25T05:31:18.800Z,84.56
2023-01-25T05:34:04.418Z,84.72
2023-01-25T05:36:49.933Z,84.93
2023-01-25T05:39:35.437Z,84.84
2023-01-25T05:42:20.464Z,84.83
2023-01-25T05:45:06.910Z,84.92
2023-01-25T05:47:53.751Z,85.00
2023-01-25T05:50:39.205Z,85.14
2023-01-25T05:53:28.164Z,85.25
2023-01-25T05:56:13.408Z,84.89
2023-01-25T05:59:00.502Z,85.02
2023-01-25T06:01:46.335Z,85.11
2023-01-25T06:04:31.791Z,85.17
2023-01-25T06:07:18.205Z,85.10
2023-01-25T06:10:04.407Z,85.03
2023-01-25T06:12:49.590Z,85.09
2023-01-25T06:15:34.983Z,85.22
2023-01-25T06:18:20.358Z,85.37
2023-01-25T06:21:05.901Z,85.46
2023-01-25T06:23:51.345Z,85.52
2023-01-25T06:34:08.108Z,85.52
2023-01-25T06:36:54.607Z,85.24
2023-01-25T06:39:41.500Z,85.20
2023-01-25T06:42:28.034Z,85.17
2023-01-25T06:45:14.594Z,85.33
2023-01-25T06:48:01.652Z,85.47
2023-01-25T06:50:54.146Z,85.57
2023-01-25T06:53:43.509Z,85.55
2023-01-25T06:56:30.530Z,85.40
2023-01-25T06:59:17.528Z,85.50
2023-01-25T07:02:04.401Z,85.50
2023-01-25T07:04:51.022Z,85.49
2023-01-25T07:07:37.446Z,85.29
2023-01-25T07:10:24.341Z,84.99
2023-01-25T07:13:10.866Z,85.04
2023-01-25T07:16:01.178Z,84.87
2023-01-25T07:18:48.237Z,85.01
2023-01-25T07:21:35.491Z,85.04
2023-01-25T07:24:27.036Z,85.09
2023-01-25T07:27:13.735Z,84.77
2023-01-25T07:30:00.535Z,84.91
2023-01-25T07:32:47.270Z,85.04
2023-01-25T07:35:33.984Z,85.24
2023-01-25T07:38:20.756Z,85.36
2023-01-25T07:41:10.654Z,85.40
2023-01-25T07:43:57.074Z,85.21
2023-01-25T07:46:43.778Z,85.09
2023-01-25T07:49:30.655Z,85.08
2023-01-25T07:52:17.452Z,84.99
2023-01-25T07:55:05.346Z,84.91
2023-01-25T07:57:58.583Z,84.52
2023-01-25T08:00:45.415Z,84.65
2023-01-25T08:03:32.061Z,84.75
2023-01-25T08:06:27.413Z,84.71
2023-01-25T08:09:20.025Z,84.71
2023-01-25T08:12:08.753Z,84.80
2023-01-25T08:14:55.448Z,84.26
2023-01-25T08:17:42.148Z,84.35
2023-01-25T08:20:29.277Z,84.38
2023-01-25T08:23:16.082Z,84.31
2023-01-25T08:26:04.696Z,84.36
2023-01-25T08:28:53.903Z,84.27
2023-01-25T08:31:48.223Z,83.92
2023-01-25T08:34:35.241Z,83.95
2023-01-25T08:37:21.942Z,82.86
2023-01-25T08:40:10.120Z,83.19
2023-01-25T08:42:57.224Z,83.47
2023-01-25T08:51:22.189Z,82.99
2023-01-25T08:54:13.029Z,83.21
2023-01-25T08:57:01.918Z,83.37
2023-01-25T08:59:53.186Z,83.29
2023-01-25T09:02:40.400Z,83.34
2023-01-25T09:05:26.875Z,83.25
2023-01-25T09:08:14.068Z,82.10
2023-01-25T09:11:08.815Z,82.09
2023-01-25T09:13:57.358Z,82.52
2023-01-25T09:16:44.091Z,82.74
2023-01-25T09:19:31.600Z,82.96
2023-01-25T09:22:19.610Z,83.14
2023-01-25T09:28:11.514Z,82.62
2023-01-25T09:31:19.913Z,82.82
2023-01-25T09:34:08.756Z,82.67
2023-01-25T09:36:55.764Z,82.62
2023-01-25T09:39:43.587Z,82.56
2023-01-25T09:42:47.418Z,82.36
2023-01-25T09:45:37.289Z,82.35
2023-01-25T09:48:46.666Z,81.26
2023-01-25T09:51:54.090Z,80.95
2023-01-25T09:54:47.536Z,81.01
2023-01-25T09:57:38.813Z,80.56
2023-01-25T10:00:39.521Z,81.22
2023-01-25T10:03:35.104Z,81.02
2023-01-25T10:06:30.374Z,81.24
2023-01-25T10:09:43.115Z,81.33
2023-01-25T10:13:51.086Z,81.24
2023-01-25T10:16:51.991Z,80.94
2023-01-25T10:20:20.103Z,81.25
2023-01-25T10:23:30.232Z,80.98
2023-01-25T10:26:31.568Z,81.16
2023-01-25T10:29:27.018Z,81.35
2023-01-25T10:33:45.829Z,81.61
2023-01-25T10:36:35.028Z,81.49
2023-01-25T10:39:23.267Z,81.16
2023-01-25T10:42:18.144Z,81.40
2023-01-25T10:45:17.167Z,81.55
2023-01-25T10:48:14.030Z,81.41
2023-01-25T10:51:10.679Z,81.63
2023-01-25T10:54:05.870Z,81.83
2023-01-25T10:56:53.275Z,81.88
2023-01-25T10:59:41.294Z,82.04
2023-01-25T11:02:47.683Z,82.12
2023-01-25T11:05:39.507Z,82.01
2023-01-25T11:08:33.654Z,81.33
2023-01-25T11:11:26.915Z,81.02
2023-01-25T11:14:18.170Z,81.07
2023-01-25T11:17:06.626Z,80.97
2023-01-25T11:20:17.727Z,80.58
2023-01-25T11:23:20.912Z,80.55
2023-01-25T11:26:18.893Z,81.02
2023-01-25T11:29:17.785Z,81.04
2023-01-25T11:32:16.519Z,81.05
2023-01-25T11:35:03.786Z,81.20
2023-01-25T11:38:02.782Z,81.40
2023-01-25T11:41:34.866Z,81.82
2023-01-25T11:44:49.208Z,81.89
2023-01-25T11:47:56.852Z,81.99
2023-01-25T11:51:05.943Z,82.13
2023-01-25T11:54:31.677Z,82.17
2023-01-25T11:58:03.032Z,82.09
2023-01-25T12:01:40.191Z,81.74
2023-01-25T12:05:16.268Z,81.21
2023-01-25T12:08:57.898Z,81.69
2023-01-25T12:12:18.604Z,81.91
2023-01-25T12:15:27.694Z,81.46
2023-01-25T12:18:49.018Z,81.35
2023-01-25T12:21:49.868Z,81.22
2023-01-25T12:24:51.594Z,81.47
2023-01-25T12:27:49.196Z,81.73
2023-01-25T12:30:59.828Z,81.94
2023-01-25T12:33:56.571Z,82.05
2023-01-25T12:36:58.555Z,81.31
2023-01-25T12:40:12.206Z,81.43
2023-01-25T12:42:59.351Z,81.59
2023-01-25T12:45:47.183Z,81.81
2023-01-25T12:48:37.751Z,81.96
2023-01-25T12:51:27.366Z,81.79
2023-01-25T12:54:30.081Z,81.96
2023-01-25T12:57:29.042Z,81.74
2023-01-25T13:00:30.745Z,81.34
2023-01-25T13:03:30.089Z,81.12
2023-01-25T13:06:25.194Z,81.51
2023-01-25T13:09:17.172Z,81.66
2023-01-25T13:12:04.359Z,81.50
2023-01-25T13:14:52.968Z,81.75
2023-01-25T13:17:43.727Z,81.75
2023-01-25T13:20:41.225Z,81.79
2023-01-25T13:23:43.090Z,81.72
2023-01-25T13:26:29.881Z,80.93
2023-01-25T13:40:29.679Z,80.66
2023-01-25T13:43:21.411Z,80.62
2023-01-25T13:46:27.471Z,80.91
2023-01-25T13:49:26.563Z,81.14
2023-01-25T13:53:04.411Z,81.40
2023-01-25T13:55:53.665Z,81.11
2023-01-25T13:58:51.152Z,81.13
2023-01-25T14:01:36.585Z,81.23
2023-01-25T14:04:22.749Z,81.39
2023-01-25T14:07:17.244Z,81.48
2023-01-25T14:10:12.528Z,80.88
2023-01-25T14:13:00.682Z,81.34
2023-01-25T14:16:04.806Z,81.50
2023-01-25T14:18:50.466Z,81.67
2023-01-25T14:21:39.994Z,81.89
2023-01-25T14:24:27.902Z,82.12
2023-01-25T14:27:22.343Z,82.39
2023-01-25T14:30:18.705Z,82.16
2023-01-25T14:33:16.447Z,82.28
2023-01-25T14:38:43.176Z,82.47
2023-01-25T14:41:41.928Z,82.52
2023-01-25T14:44:30.800Z,82.79
2023-01-25T14:47:31.272Z,82.89
2023-01-25T14:50:40.617Z,82.75
2023-01-25T14:53:28.712Z,82.83
2023-01-25T14:56:45.675Z,82.88
2023-01-25T14:59:50.296Z,82.84
2023-01-25T15:20:03.214Z,82.74
2023-01-25T15:54:51.728Z,82.85
2023-01-25T15:58:02.171Z,83.10
2023-01-25T16:11:54.401Z,83.20
2023-01-25T16:14:41.441Z,83.14
2023-01-25T16:17:30.600Z,82.93
2023-01-25T16:20:21.519Z,83.35
2023-01-25T16:23:08.508Z,83.69
2023-01-25T16:25:55.136Z,83.53
2023-01-25T16:28:41.747Z,83.65
2023-01-25T16:31:32.941Z,83.54
2023-01-25T16:34:23.193Z,83.18
2023-01-25T16:37:17.244Z,83.22
2023-01-25T16:40:03.709Z,83.15
2023-01-25T16:42:51.846Z,83.24
2023-01-25T16:45:39.997Z,83.23
2023-01-25T16:48:26.410Z,83.20
2023-01-25T16:51:17.002Z,83.36
2023-01-25T16:54:07.424Z,83.48
2023-01-25T16:56:55.098Z,83.61
2023-01-25T16:59:41.531Z,83.74
2023-01-25T17:02:28.112Z,83.77
2023-01-25T17:06:02.051Z,83.88
2023-01-25T17:10:07.956Z,83.66
2023-01-25T17:14:37.999Z,83.91
2023-01-25T17:28:26.945Z,83.91
2023-01-25T17:31:27.107Z,83.93
2023-01-25T17:35:24.042Z,84.01
2023-01-25T17:38:10.433Z,84.01
2023-01-25T17:40:57.004Z,83.85
2023-01-25T17:43:43.886Z,83.82
2023-01-25T17:46:33.869Z,83.76
2023-01-25T18:27:31.566Z,83.19
2023-01-25T18:30:35.394Z,83.12
2023-01-25T18:33:21.952Z,83.14
2023-01-25T18:36:08.805Z,82.96
2023-01-25T18:38:55.610Z,83.03
2023-01-25T18:41:44.692Z,83.19
2023-01-25T18:48:47.560Z,83.25
2023-01-25T18:51:38.950Z,83.02
2023-01-25T18:54:31.399Z,82.71
2023-01-25T18:57:18.395Z,82.72
2023-01-25T19:00:07.128Z,82.75
2023-01-25T19:02:54.364Z,82.81
2023-01-25T19:05:40.913Z,82.75
2023-01-25T19:08:28.656Z,82.55
2023-01-25T19:11:17.924Z,82.78
2023-01-25T19:14:05.236Z,82.81
2023-01-25T19:16:51.909Z,82.78
2023-01-25T19:23:54.678Z,82.54
2023-01-25T19:26:41.721Z,82.64
2023-01-25T19:29:28.466Z,82.65
2023-01-25T19:32:15.226Z,82.73
2023-01-25T19:47:51.558Z,82.85
2023-01-25T19:50:54.009Z,82.77
2023-01-25T19:54:31.590Z,82.92
2023-01-25T19:58:10.625Z,83.13
2023-01-25T20:01:44.706Z,83.05
2023-01-25T20:05:58.638Z,83.13
2023-01-25T20:09:27.947Z,83.20
2023-01-25T20:12:15.237Z,83.15
2023-01-25T20:15:02.274Z,83.10
2023-01-25T20:17:49.999Z,83.23
2023-01-25T20:20:40.060Z,83.51
2023-01-25T20:23:27.807Z,83.36
2023-01-25T20:26:27.470Z,83.22
2023-01-25T20:30:44.247Z,83.43
2023-01-25T20:34:12.347Z,83.48
2023-01-25T20:37:41.603Z,83.80
2023-01-25T20:41:42.907Z,83.72
2023-01-25T20:45:21.505Z,83.52
2023-01-25T20:49:02.313Z,83.73
2023-01-25T21:16:51.718Z,83.44
2023-01-25T21:19:48.472Z,83.54
2023-01-25T21:23:45.433Z,83.58
2023-01-25T21:27:53.500Z,83.60
2023-01-25T21:47:36.212Z,83.99
2023-01-25T22:01:54.543Z,83.76
2023-01-25T22:33:21.538Z,83.19
2023-01-25T22:37:39.975Z,83.50
2023-01-25T22:51:12.670Z,84.05
2023-01-25T23:18:49.787Z,84.57
2023-01-25T23:21:47.310Z,84.70
2023-01-25T23:25:45.847Z,84.65
2023-01-25T23:29:44.756Z,84.72
2023-01-25T23:34:11.293Z,84.92
2023-01-25T23:38:16.000Z,85.03
2023-01-25T23:42:05.517Z,84.88
2023-01-25T23:45:25.153Z,85.05
2023-01-25T23:49:24.338Z,85.25
2023-01-25T23:53:01.408Z,85.32
2023-01-25T23:56:56.398Z,85.43
